Time;durP1;ratioP1;P1;durP2;ratioP2;P2;SDS_P1;SDS_P2;PMS_P1;PMS_P2;Temp;Humidity;BMP_temperature;BMP_pressure;BME280_temperature;BME280_humidity;BME280_pressure;Samples;Min_cycle;Max_cycle;Signal;HPM_P1;HPM_P2
2024/02/14 00:00:28;;;;;;;5.47;2.20;;;9.80;72.50;;;;;;2215909;57;20970;-66
2024/02/14 00:02:54;;;;;;;5.72;2.37;;;9.80;72.50;;;;;;2435256;56;21007;-66
2024/02/14 00:05:21;;;;;;;3.85;1.83;;;9.90;72.60;;;;;;2216000;57;21010;-66
2024/02/14 00:07:47;;;;;;;3.87;1.80;;;9.90;72.70;;;;;;2435239;56;20989;-66
2024/02/14 00:10:13;;;;;;;5.35;2.30;;;9.90;72.70;;;;;;2215967;57;21937;-65
2024/02/14 00:12:40;;;;;;;4.40;1.90;;;10.00;71.60;;;;;;2216514;57;21298;-66
2024/02/14 00:15:07;;;;;;;4.37;2.05;;;10.00;71.60;;;;;;2435786;56;21383;-66
2024/02/14 00:17:34;;;;;;;3.90;1.90;;;10.00;71.60;;;;;;2215374;57;21061;-66
2024/02/14 00:20:27;;;;;;;4.43;2.08;;;10.00;71.60;;;;;;2216134;57;20978;-65
2024/02/14 00:22:54;;;;;;;4.43;2.10;;;10.10;71.10;;;;;;2201582;57;20942;-66
2024/02/14 00:25:21;;;;;;;4.28;2.12;;;10.10;72.40;;;;;;2216204;57;20945;-66
2024/02/14 00:27:47;;;;;;;4.87;1.80;;;10.10;71.70;;;;;;2219309;57;20957;-66
2024/02/14 00:30:13;;;;;;;4.32;2.08;;;10.10;71.70;;;;;;2215783;57;21859;-66
2024/02/14 00:32:40;;;;;;;4.65;2.25;;;10.10;71.60;;;;;;2216175;57;21025;-66
2024/02/14 00:35:07;;;;;;;4.87;2.03;;;10.20;71.70;;;;;;2216037;57;20981;-66
2024/02/14 00:37:34;;;;;;;4.25;2.08;;;10.20;71.60;;;;;;2215970;56;20985;-66
2024/02/14 00:40:00;;;;;;;4.53;2.35;;;10.20;71.60;;;;;;2435268;56;21278;-66
2024/02/14 00:42:27;;;;;;;5.70;1.95;;;10.20;71.60;;;;;;2215792;56;21122;-66
2024/02/14 00:44:55;;;;;;;4.28;2.05;;;10.20;71.60;;;;;;2435448;56;21266;-66
2024/02/14 00:47:21;;;;;;;4.12;2.17;;;10.30;71.50;;;;;;2216080;56;21006;-66
2024/02/14 00:49:48;;;;;;;4.32;1.83;;;10.30;71.50;;;;;;2216042;57;20922;-66
2024/02/14 00:52:14;;;;;;;4.53;2.08;;;10.30;71.40;;;;;;2215228;57;20977;-66
2024/02/14 00:54:40;;;;;;;5.28;2.22;;;10.30;71.40;;;;;;2435189;56;21407;-66
2024/02/14 00:57:06;;;;;;;4.78;2.33;;;10.30;71.30;;;;;;2215758;56;21054;-65
2024/02/14 00:59:33;;;;;;;4.72;2.25;;;10.30;71.30;;;;;;2216030;56;21117;-66
2024/02/14 01:01:59;;;;;;;5.93;2.37;;;10.30;71.20;;;;;;2216152;57;20935;-66
2024/02/14 01:04:25;;;;;;;4.05;1.95;;;10.20;71.10;;;;;;2215987;56;21405;-66
2024/02/14 01:06:52;;;;;;;4.50;1.90;;;10.30;71.20;;;;;;2216228;57;20993;-66
2024/02/14 01:09:19;;;;;;;4.62;2.05;;;10.30;71.10;;;;;;2215900;57;20942;-66
2024/02/14 01:11:45;;;;;;;3.80;1.87;;;10.30;71.10;;;;;;2435309;56;21001;-66
2024/02/14 01:14:13;;;;;;;5.18;1.90;;;10.30;71.10;;;;;;2216218;56;21034;-65
2024/02/14 01:16:43;;;;;;;3.05;1.52;;;10.30;71.00;;;;;;2434612;56;20966;-66
2024/02/14 01:19:10;;;;;;;4.15;1.80;;;10.30;70.80;;;;;;2215389;57;21109;-66
2024/02/14 01:21:37;;;;;;;7.60;2.15;;;10.20;70.70;;;;;;2215812;56;20966;-66
2024/02/14 01:24:08;;;;;;;5.22;2.10;;;10.20;70.70;;;;;;2216021;56;21025;-66
2024/02/14 01:26:34;;;;;;;3.55;1.92;;;10.20;70.60;;;;;;2220191;56;21082;-66
2024/02/14 01:29:01;;;;;;;4.62;2.17;;;10.20;70.70;;;;;;2214939;56;21057;-66
2024/02/14 01:31:27;;;;;;;4.62;2.20;;;10.20;70.70;;;;;;2434994;56;20965;-66
2024/02/14 01:33:53;;;;;;;3.95;1.80;;;10.20;70.70;;;;;;2216015;57;21014;-66
2024/02/14 01:36:20;;;;;;;4.43;2.40;;;10.10;70.70;;;;;;2215779;57;21244;-66
2024/02/14 01:38:46;;;;;;;3.72;1.87;;;10.10;71.50;;;;;;2212738;56;20966;-65
2024/02/14 01:41:13;;;;;;;5.00;2.33;;;10.10;70.80;;;;;;2215493;57;21819;-66
2024/02/14 01:43:39;;;;;;;4.40;1.85;;;10.10;70.80;;;;;;2215703;56;21018;-66
2024/02/14 01:46:05;;;;;;;4.60;1.60;;;10.10;70.80;;;;;;2214398;57;21443;-66
2024/02/14 01:48:33;;;;;;;3.83;1.40;;;10.10;70.90;;;;;;2434938;56;21358;-66
2024/02/14 01:50:59;;;;;;;3.90;1.30;;;10.10;71.20;;;;;;2215610;57;22073;-66
2024/02/14 01:53:26;;;;;;;4.95;1.00;;;10.10;71.30;;;;;;2215679;57;20954;-66
2024/02/14 01:55:52;;;;;;;3.25;1.17;;;10.10;71.50;;;;;;2215892;56;21782;-65
2024/02/14 01:58:19;;;;;;;3.75;1.10;;;10.20;71.80;;;;;;2215264;57;21073;-66
2024/02/14 02:00:45;;;;;;;3.62;1.05;;;10.20;72.00;;;;;;2435253;56;20946;-67
2024/02/14 02:03:11;;;;;;;3.17;0.98;;;10.20;72.10;;;;;;2211253;57;21043;-66
2024/02/14 02:05:38;;;;;;;2.10;0.90;;;10.30;72.30;;;;;;2215932;57;20994;-66
2024/02/14 02:08:06;;;;;;;1.98;0.80;;;10.30;72.40;;;;;;2215933;56;21345;-67
2024/02/14 02:10:33;;;;;;;3.00;0.93;;;10.40;72.50;;;;;;2219223;56;21062;-66
2024/02/14 02:13:00;;;;;;;3.40;0.93;;;10.50;72.70;;;;;;2215573;56;20973;-67
2024/02/14 02:15:27;;;;;;;3.22;0.80;;;10.50;72.80;;;;;;2434646;56;20958;-66
2024/02/14 02:17:54;;;;;;;2.72;1.00;;;10.60;72.90;;;;;;2215790;57;20969;-67
2024/02/14 02:20:20;;;;;;;3.65;0.90;;;10.60;72.90;;;;;;2215499;56;20890;-66
2024/02/14 02:22:50;;;;;;;3.03;0.95;;;10.70;73.70;;;;;;2215536;56;21306;-66
2024/02/14 02:25:23;;;;;;;3.55;1.08;;;10.70;73.00;;;;;;2434601;56;21034;-66
2024/02/14 02:27:49;;;;;;;2.25;0.85;;;10.80;73.00;;;;;;2215324;57;21313;-66
2024/02/14 02:30:15;;;;;;;3.28;1.00;;;10.80;72.90;;;;;;2215640;56;21514;-66
2024/02/14 02:32:42;;;;;;;3.75;1.00;;;10.90;73.00;;;;;;2215831;56;20986;-66
2024/02/14 02:35:09;;;;;;;2.70;0.90;;;11.00;73.00;;;;;;2215591;57;21038;-66
2024/02/14 02:37:35;;;;;;;4.20;1.08;;;11.00;72.90;;;;;;2435046;57;21012;-66
2024/02/14 02:40:02;;;;;;;3.12;0.90;;;11.10;73.00;;;;;;2219159;57;20982;-66
2024/02/14 02:42:29;;;;;;;2.67;0.80;;;11.10;72.90;;;;;;2215519;57;21136;-67
2024/02/14 02:44:55;;;;;;;3.28;0.90;;;11.20;73.00;;;;;;2216204;57;21029;-66
2024/02/14 02:47:21;;;;;;;3.78;1.00;;;11.20;72.90;;;;;;2215464;56;20993;-67
2024/02/14 02:49:48;;;;;;;3.62;1.15;;;11.30;73.00;;;;;;2230236;56;21042;-66
2024/02/14 02:52:14;;;;;;;3.30;0.80;;;11.30;73.60;;;;;;2214013;57;21041;-66
2024/02/14 02:54:43;;;;;;;2.15;0.70;;;11.40;72.90;;;;;;2439128;56;21103;-66
2024/02/14 02:57:11;;;;;;;3.80;0.90;;;11.40;72.90;;;;;;2219022;57;21080;-66
2024/02/14 02:59:42;;;;;;;4.57;0.88;;;11.40;72.80;;;;;;2219243;57;21026;-67
2024/02/14 03:02:11;;;;;;;3.47;1.10;;;11.50;72.90;;;;;;2434876;56;20982;-66
2024/02/14 03:04:39;;;;;;;3.87;1.10;;;11.50;72.90;;;;;;2434785;56;20950;-66
2024/02/14 03:07:09;;;;;;;4.05;0.98;;;11.60;72.90;;;;;;2219113;56;22426;-66
2024/02/14 03:09:36;;;;;;;3.62;0.80;;;11.60;72.70;;;;;;2435324;57;21227;-67
2024/02/14 03:12:03;;;;;;;4.32;1.30;;;11.70;72.90;;;;;;2219043;57;21098;-66
2024/02/14 03:14:32;;;;;;;4.35;1.05;;;11.70;72.90;;;;;;2434721;56;20938;-66
2024/02/14 03:17:04;;;;;;;4.47;1.10;;;11.70;72.60;;;;;;2215911;57;20973;-66
2024/02/14 03:19:31;;;;;;;2.45;0.85;;;11.80;72.40;;;;;;2435240;56;20962;-67
2024/02/14 03:21:57;;;;;;;2.55;0.80;;;11.80;72.80;;;;;;2216352;57;20994;-66
2024/02/14 03:24:27;;;;;;;5.50;1.10;;;11.90;72.80;;;;;;2215610;56;21048;-66
2024/02/14 03:26:53;;;;;;;2.62;0.82;;;11.90;72.80;;;;;;2216165;56;20969;-67
2024/02/14 03:29:20;;;;;;;3.05;1.00;;;11.90;72.70;;;;;;2216233;57;21602;-66
2024/02/14 03:31:47;;;;;;;2.87;0.88;;;11.90;72.60;;;;;;2435483;56;20945;-67
2024/02/14 03:34:16;;;;;;;2.78;0.73;;;12.00;72.60;;;;;;2436394;56;21017;-66
2024/02/14 03:36:42;;;;;;;5.10;1.30;;;12.00;72.50;;;;;;2435089;56;20990;-65
2024/02/14 03:39:11;;;;;;;4.70;0.82;;;12.10;72.60;;;;;;2435256;56;21722;-67
2024/02/14 03:41:39;;;;;;;3.92;0.90;;;12.10;72.60;;;;;;2216110;57;20962;-66
2024/02/14 03:44:08;;;;;;;2.50;1.08;;;12.10;72.50;;;;;;2435669;56;21069;-66
2024/02/14 03:46:35;;;;;;;3.45;0.90;;;12.20;72.60;;;;;;2434166;56;21761;-67
2024/02/14 03:49:01;;;;;;;2.65;0.80;;;12.20;72.50;;;;;;2222987;57;21365;-66
2024/02/14 03:51:28;;;;;;;3.37;0.90;;;12.20;72.40;;;;;;2436392;56;21419;-67
2024/02/14 03:53:54;;;;;;;2.47;0.82;;;12.20;72.30;;;;;;2216020;57;20973;-67
2024/02/14 03:56:20;;;;;;;2.28;0.80;;;12.20;72.30;;;;;;2436119;56;21051;-66
2024/02/14 03:58:48;;;;;;;3.90;1.25;;;12.30;72.40;;;;;;2216283;57;20962;-67
2024/02/14 04:01:15;;;;;;;2.40;1.00;;;12.30;72.30;;;;;;2215655;56;21009;-66
2024/02/14 04:03:41;;;;;;;2.37;0.90;;;12.30;72.20;;;;;;2436815;56;20953;-66
2024/02/14 04:06:08;;;;;;;3.00;1.20;;;12.40;72.30;;;;;;2434738;56;20966;-66
2024/02/14 04:08:35;;;;;;;3.95;0.95;;;12.40;72.30;;;;;;2216358;57;20978;-67
2024/02/14 04:11:01;;;;;;;2.87;0.90;;;12.40;72.20;;;;;;2435517;56;21469;-66
2024/02/14 04:13:27;;;;;;;3.17;0.90;;;12.40;72.20;;;;;;2219626;57;21316;-67
2024/02/14 04:15:55;;;;;;;3.22;0.88;;;12.50;72.30;;;;;;2217740;56;20974;-66
2024/02/14 04:18:21;;;;;;;3.92;1.00;;;12.50;72.20;;;;;;2220444;56;21714;-66
2024/02/14 04:20:48;;;;;;;4.40;1.10;;;12.50;72.20;;;;;;2221893;56;21030;-67
2024/02/14 04:23:14;;;;;;;6.28;1.30;;;12.60;72.20;;;;;;2435005;56;21039;-66
2024/02/14 04:25:41;;;;;;;4.65;1.12;;;12.60;72.10;;;;;;2216380;56;20974;-67
2024/02/14 04:28:11;;;;;;;2.45;0.93;;;12.60;72.20;;;;;;2217494;57;21002;-67
2024/02/14 04:30:38;;;;;;;2.83;0.93;;;12.60;72.10;;;;;;2435238;56;20970;-67
2024/02/14 04:33:06;;;;;;;4.18;1.30;;;12.70;72.20;;;;;;2435872;56;20966;-66
2024/02/14 04:35:33;;;;;;;2.47;1.00;;;12.70;72.10;;;;;;2435169;56;20930;-66
2024/02/14 04:37:59;;;;;;;3.22;1.10;;;12.70;72.10;;;;;;2435436;56;21774;-66
2024/02/14 04:40:28;;;;;;;4.35;1.10;;;12.70;72.10;;;;;;2219218;56;21085;-66
2024/02/14 04:42:54;;;;;;;4.43;1.25;;;12.80;72.00;;;;;;2435600;56;20962;-67
2024/02/14 04:45:20;;;;;;;4.43;1.52;;;12.80;71.90;;;;;;2434303;56;20966;-66
2024/02/14 04:47:47;;;;;;;4.55;1.50;;;12.80;71.90;;;;;;2216233;56;20986;-66
2024/02/14 04:50:13;;;;;;;2.58;1.10;;;12.80;71.80;;;;;;2217967;57;21377;-66
2024/02/14 04:52:40;;;;;;;2.83;1.12;;;12.80;71.80;;;;;;2215579;57;21053;-66
2024/02/14 04:55:07;;;;;;;3.20;1.20;;;12.80;71.80;;;;;;2214966;56;21073;-67
2024/02/14 04:57:35;;;;;;;4.40;1.02;;;12.80;71.70;;;;;;2215966;56;21042;-66
2024/02/14 05:00:04;;;;;;;4.32;1.00;;;12.90;71.90;;;;;;2435353;57;21243;-66
2024/02/14 05:02:31;;;;;;;3.45;0.90;;;12.90;71.90;;;;;;2215996;56;21060;-67
2024/02/14 05:04:57;;;;;;;3.00;0.82;;;12.90;71.90;;;;;;2216409;56;21042;-66
2024/02/14 05:07:23;;;;;;;3.58;1.10;;;12.90;71.90;;;;;;2215193;57;21049;-66
2024/02/14 05:09:52;;;;;;;2.75;1.00;;;12.90;71.80;;;;;;2216048;57;21306;-66
2024/02/14 05:12:19;;;;;;;2.80;0.82;;;12.90;71.80;;;;;;2215457;57;20978;-66
2024/02/14 05:14:46;;;;;;;2.40;1.00;;;12.90;71.80;;;;;;2216723;57;21494;-66
2024/02/14 05:17:12;;;;;;;2.85;0.77;;;13.00;71.80;;;;;;2434122;56;21061;-66
2024/02/14 05:19:38;;;;;;;2.20;0.73;;;13.00;71.70;;;;;;2221081;57;21030;-67
2024/02/14 05:22:04;;;;;;;2.67;0.82;;;13.00;71.80;;;;;;2434212;56;21657;-67
2024/02/14 05:24:31;;;;;;;4.40;0.80;;;13.00;71.90;;;;;;2215770;57;20982;-66
2024/02/14 05:26:57;;;;;;;2.62;0.85;;;13.10;72.00;;;;;;2216197;56;21016;-67
2024/02/14 05:29:24;;;;;;;1.45;0.65;;;13.10;71.90;;;;;;2215135;56;21050;-66
2024/02/14 05:31:52;;;;;;;2.95;0.98;;;13.10;71.90;;;;;;2216491;56;21005;-67
2024/02/14 05:34:21;;;;;;;3.97;1.08;;;13.10;71.90;;;;;;2215534;57;21006;-66
2024/02/14 05:36:47;;;;;;;2.15;0.98;;;13.20;72.00;;;;;;2215984;56;21285;-67
2024/02/14 05:39:15;;;;;;;2.45;0.93;;;13.20;72.00;;;;;;2434096;56;20970;-67
2024/02/14 05:41:42;;;;;;;3.92;1.20;;;13.20;71.90;;;;;;2216297;57;20969;-67
2024/02/14 05:44:09;;;;;;;2.72;0.90;;;13.20;71.70;;;;;;2215756;57;20998;-66
2024/02/14 05:46:35;;;;;;;2.78;1.15;;;13.20;71.60;;;;;;2215539;57;21820;-66
2024/02/14 05:49:01;;;;;;;3.60;1.30;;;13.20;71.50;;;;;;2216185;56;21078;-67
2024/02/14 05:51:28;;;;;;;2.90;1.00;;;13.20;71.50;;;;;;2215820;57;21510;-66
2024/02/14 05:53:55;;;;;;;2.97;0.95;;;13.20;71.40;;;;;;2434939;56;20997;-67
2024/02/14 05:56:21;;;;;;;3.17;1.20;;;13.30;71.50;;;;;;2434704;56;21852;-67
2024/02/14 05:58:47;;;;;;;4.68;1.00;;;13.30;71.50;;;;;;2435386;56;20938;-67
2024/02/14 06:01:14;;;;;;;3.28;1.08;;;13.30;71.40;;;;;;2435485;56;20985;-66
2024/02/14 06:03:42;;;;;;;2.80;1.05;;;13.30;71.20;;;;;;2216439;57;21119;-66
2024/02/14 06:06:09;;;;;;;3.12;0.80;;;13.20;71.00;;;;;;2435232;56;20950;-67
2024/02/14 06:08:35;;;;;;;3.58;1.30;;;13.20;71.20;;;;;;2434083;56;21021;-66
2024/02/14 06:11:01;;;;;;;5.43;1.10;;;13.30;71.30;;;;;;2434833;56;21471;-67
2024/02/14 06:13:29;;;;;;;3.50;1.05;;;13.20;71.20;;;;;;2214993;56;20974;-66
2024/02/14 06:15:55;;;;;;;3.33;1.15;;;13.30;71.30;;;;;;2435238;56;20961;-67
2024/02/14 06:18:21;;;;;;;3.40;1.30;;;13.30;71.20;;;;;;2215704;57;21002;-66
2024/02/14 06:20:50;;;;;;;2.95;1.30;;;13.30;71.10;;;;;;2435533;56;20950;-66
2024/02/14 06:23:18;;;;;;;5.20;1.20;;;13.30;70.80;;;;;;2214877;57;21013;-67
2024/02/14 06:25:44;;;;;;;2.92;1.17;;;13.30;71.00;;;;;;2435579;56;21345;-67
2024/02/14 06:28:11;;;;;;;3.67;1.00;;;13.30;71.00;;;;;;2218553;57;21030;-66
2024/02/14 06:30:37;;;;;;;4.95;0.90;;;13.30;71.00;;;;;;2219563;57;21141;-66
2024/02/14 06:33:03;;;;;;;2.95;1.00;;;13.30;70.80;;;;;;2216878;56;21017;-66
2024/02/14 06:35:30;;;;;;;2.85;0.93;;;13.30;70.80;;;;;;2215066;57;21046;-66
2024/02/14 06:37:57;;;;;;;2.85;0.98;;;13.30;70.80;;;;;;2218627;57;20965;-67
2024/02/14 06:40:27;;;;;;;1.90;0.70;;;13.30;70.80;;;;;;2433823;56;20993;-67
2024/02/14 06:42:54;;;;;;;2.40;0.90;;;13.30;70.80;;;;;;2434996;56;21001;-66
2024/02/14 06:45:21;;;;;;;2.03;0.73;;;13.30;70.90;;;;;;2433800;56;20982;-67
2024/02/14 06:47:48;;;;;;;2.47;0.80;;;13.30;70.90;;;;;;2435142;56;20942;-66
2024/02/14 06:50:14;;;;;;;2.08;0.80;;;13.30;71.00;;;;;;2215863;57;21848;-67
2024/02/14 06:52:40;;;;;;;2.17;0.82;;;13.30;71.00;;;;;;2434637;56;20926;-67
2024/02/14 06:55:07;;;;;;;5.22;1.00;;;13.30;70.90;;;;;;2215470;56;21104;-67
2024/02/14 06:57:34;;;;;;;3.33;0.90;;;13.30;70.80;;;;;;2214266;56;21022;-67
2024/02/14 07:00:00;;;;;;;3.12;0.82;;;13.40;71.00;;;;;;2435125;57;21026;-67
2024/02/14 07:02:28;;;;;;;4.25;0.93;;;13.30;70.90;;;;;;2434346;56;20997;-66
2024/02/14 07:04:56;;;;;;;3.00;0.80;;;13.30;70.80;;;;;;2435515;56;20998;-67
2024/02/14 07:07:23;;;;;;;3.47;1.12;;;13.30;70.80;;;;;;2215363;57;20977;-67
2024/02/14 07:09:49;;;;;;;3.03;1.10;;;13.30;70.90;;;;;;2435356;57;21090;-67
2024/02/14 07:12:15;;;;;;;3.12;1.00;;;13.40;70.90;;;;;;2435143;56;20973;-66
2024/02/14 07:14:41;;;;;;;4.55;1.02;;;13.40;71.00;;;;;;2216125;57;20974;-67
2024/02/14 07:17:08;;;;;;;2.47;0.90;;;13.40;71.10;;;;;;2435489;56;21026;-66
2024/02/14 07:19:34;;;;;;;2.58;0.95;;;13.40;71.10;;;;;;2434711;56;21435;-66
2024/02/14 07:22:02;;;;;;;2.45;0.90;;;13.40;71.10;;;;;;2215061;57;21424;-66
2024/02/14 07:24:29;;;;;;;4.72;0.95;;;13.40;71.00;;;;;;2215327;56;21003;-66
2024/02/14 07:26:57;;;;;;;5.25;1.27;;;13.40;71.30;;;;;;2435593;56;21535;-66
2024/02/14 07:29:27;;;;;;;3.17;1.00;;;13.50;71.40;;;;;;2214907;57;20981;-65
2024/02/14 07:31:54;;;;;;;1.90;0.80;;;13.50;71.40;;;;;;2435778;56;20998;-67
2024/02/14 07:34:21;;;;;;;3.40;1.42;;;13.50;71.40;;;;;;2435180;56;21090;-67
2024/02/14 07:36:49;;;;;;;2.12;0.93;;;13.60;71.60;;;;;;2435396;56;21010;-65
2024/02/14 07:39:15;;;;;;;3.58;1.20;;;13.60;71.60;;;;;;2218971;57;21053;-67
2024/02/14 07:41:41;;;;;;;2.37;1.00;;;13.60;71.80;;;;;;2218853;57;21002;-67
2024/02/14 07:44:08;;;;;;;2.08;0.80;;;13.60;71.80;;;;;;2436780;56;21488;-67
2024/02/14 07:46:35;;;;;;;2.65;1.00;;;13.70;71.90;;;;;;2226836;56;21014;-66
2024/02/14 07:49:02;;;;;;;2.42;1.00;;;13.70;71.70;;;;;;2212266;56;21021;-66
2024/02/14 07:51:29;;;;;;;3.33;0.82;;;13.80;71.80;;;;;;2215759;56;20978;-66
2024/02/14 07:53:55;;;;;;;2.80;1.20;;;13.80;71.40;;;;;;2215853;56;20978;-67
2024/02/14 07:56:22;;;;;;;2.92;0.98;;;13.80;71.60;;;;;;2215690;56;21102;-67
2024/02/14 07:58:49;;;;;;;2.22;0.80;;;13.90;71.80;;;;;;2215558;56;20973;-66
2024/02/14 08:01:16;;;;;;;2.65;1.02;;;13.90;71.70;;;;;;2216288;57;21566;-67
2024/02/14 08:03:42;;;;;;;3.08;1.12;;;14.00;71.80;;;;;;2215807;57;21041;-67
2024/02/14 08:06:08;;;;;;;3.03;0.95;;;14.00;71.60;;;;;;2435073;56;21045;-67
2024/02/14 08:08:35;;;;;;;7.28;2.72;;;14.00;71.50;;;;;;2434548;56;21070;-66
2024/02/14 08:11:01;;;;;;;4.85;2.10;;;14.00;71.70;;;;;;2435322;56;20954;-66
2024/02/14 08:13:28;;;;;;;4.40;1.60;;;14.10;71.60;;;;;;2215291;57;20970;-66
2024/02/14 08:15:54;;;;;;;3.33;1.30;;;14.10;71.50;;;;;;2216166;56;20974;-67
2024/02/14 08:18:21;;;;;;;3.47;1.20;;;14.10;71.40;;;;;;2433723;56;21113;-67
2024/02/14 08:20:47;;;;;;;4.47;1.30;;;14.10;71.40;;;;;;2217039;56;20950;-66
2024/02/14 08:23:14;;;;;;;2.72;1.00;;;14.10;71.40;;;;;;2435548;56;21074;-67
2024/02/14 08:25:41;;;;;;;2.95;1.10;;;14.20;71.50;;;;;;2435180;56;21502;-67
2024/02/14 08:28:07;;;;;;;5.00;1.12;;;14.20;71.50;;;;;;2216836;56;21045;-67
2024/02/14 08:30:34;;;;;;;3.15;1.20;;;14.20;71.40;;;;;;2434054;56;20994;-65
2024/02/14 08:33:00;;;;;;;3.08;1.02;;;14.20;71.30;;;;;;2216503;57;21809;-67
2024/02/14 08:35:27;;;;;;;3.85;1.00;;;14.30;71.30;;;;;;2215829;56;21417;-66
2024/02/14 08:37:55;;;;;;;3.85;1.27;;;14.30;71.40;;;;;;2435937;56;21062;-66
2024/02/14 08:40:22;;;;;;;3.45;1.00;;;14.30;71.50;;;;;;2215465;56;21499;-67
2024/02/14 08:42:48;;;;;;;2.92;1.30;;;14.40;71.70;;;;;;2216215;57;20978;-66
2024/02/14 08:45:14;;;;;;;2.87;1.08;;;14.40;71.80;;;;;;2216040;56;20977;-67
2024/02/14 08:47:43;;;;;;;2.37;0.95;;;14.40;71.60;;;;;;2218487;57;21034;-66
2024/02/14 08:50:10;;;;;;;3.37;1.20;;;14.40;71.50;;;;;;2435617;56;20998;-67
2024/02/14 08:52:37;;;;;;;2.75;0.90;;;14.40;71.80;;;;;;2215603;56;21001;-67
2024/02/14 08:55:14;;;;;;;3.60;1.20;;;14.50;71.90;;;;;;2216434;56;21318;-67
2024/02/14 08:57:41;;;;;;;1.55;0.70;;;14.50;71.70;;;;;;2215577;56;21058;-67
2024/02/14 09:00:08;;;;;;;4.47;1.12;;;14.50;71.90;;;;;;2436000;56;20966;-66
2024/02/14 09:02:37;;;;;;;2.60;1.10;;;14.60;71.90;;;;;;2435093;56;20986;-67
2024/02/14 09:05:05;;;;;;;2.65;0.93;;;14.60;71.70;;;;;;2215702;56;20990;-67
2024/02/14 09:07:33;;;;;;;2.58;0.90;;;14.60;71.70;;;;;;2433919;56;21432;-67
2024/02/14 09:10:00;;;;;;;4.18;1.00;;;14.70;71.90;;;;;;2216486;56;21070;-67
2024/02/14 09:12:27;;;;;;;3.75;1.12;;;14.70;72.00;;;;;;2215881;57;21302;-67
2024/02/14 09:14:53;;;;;;;2.70;0.88;;;14.70;71.90;;;;;;2435930;56;21021;-67
2024/02/14 09:17:22;;;;;;;2.50;1.10;;;14.80;72.10;;;;;;2435071;56;20994;-67
2024/02/14 09:19:49;;;;;;;2.65;1.10;;;14.80;72.10;;;;;;2216770;56;20989;-67
2024/02/14 09:22:21;;;;;;;2.90;1.37;;;14.80;71.90;;;;;;2216151;56;20978;-66
2024/02/14 09:24:50;;;;;;;2.17;0.85;;;14.80;72.10;;;;;;2215921;56;20961;-67
2024/02/14 09:27:16;;;;;;;3.03;0.98;;;14.90;72.00;;;;;;2435103;56;20973;-67
2024/02/14 09:29:43;;;;;;;2.47;1.30;;;14.90;72.20;;;;;;2434867;57;20969;-66
2024/02/14 09:32:10;;;;;;;2.97;1.02;;;15.00;72.40;;;;;;2215915;56;20969;-66
2024/02/14 09:34:37;;;;;;;4.32;1.00;;;15.00;72.20;;;;;;2434654;56;21790;-66
2024/02/14 09:40:31;;;;;;;2.62;1.10;;;15.10;71.00;;;;;;2409166;56;21049;-67
2024/02/14 09:42:58;;;;;;;4.00;1.58;;;15.10;72.40;;;;;;2212072;56;20985;-66
2024/02/14 09:45:26;;;;;;;2.85;1.10;;;15.10;72.30;;;;;;2432759;56;20970;-67
2024/02/14 09:47:52;;;;;;;2.55;1.00;;;15.20;72.30;;;;;;2215147;57;21065;-67
2024/02/14 09:50:21;;;;;;;3.70;1.20;;;15.20;72.40;;;;;;2215474;57;21038;-66
2024/02/14 09:52:51;;;;;;;3.08;1.05;;;15.20;72.30;;;;;;2214534;57;21624;-67
2024/02/14 09:55:48;;;;;;;4.18;1.12;;;15.30;72.70;;;;;;2425556;56;21436;-66
2024/02/14 10:01:50;;;;;;;8.35;1.85;;;15.40;71.30;;;;;;2412613;56;21399;-66
2024/02/14 10:04:18;;;;;;;24.33;9.95;;;15.40;72.80;;;;;;2215141;56;20973;-66
2024/02/14 10:06:45;;;;;;;14.15;6.80;;;15.50;73.00;;;;;;2216165;56;20966;-67
2024/02/14 10:09:17;;;;;;;8.23;4.22;;;15.50;72.90;;;;;;2215108;56;21751;-68
2024/02/14 10:11:45;;;;;;;5.72;3.08;;;15.60;72.80;;;;;;2434851;56;21042;-67
2024/02/14 10:14:12;;;;;;;5.18;2.60;;;15.60;72.70;;;;;;2215879;56;20974;-67
2024/02/14 10:16:39;;;;;;;4.60;1.90;;;15.60;72.80;;;;;;2433613;56;21009;-67
2024/02/14 10:19:08;;;;;;;3.22;1.30;;;15.60;72.70;;;;;;2434428;56;21030;-66
2024/02/14 10:21:34;;;;;;;3.20;1.48;;;15.70;72.70;;;;;;2214198;57;21010;-67
2024/02/14 10:24:01;;;;;;;3.20;1.00;;;15.70;72.40;;;;;;2216103;57;21321;-67
2024/02/14 10:26:29;;;;;;;1.98;0.93;;;15.70;72.20;;;;;;2215399;57;21053;-67
2024/02/14 10:28:56;;;;;;;2.50;1.02;;;15.70;72.20;;;;;;2215248;56;21747;-67
2024/02/14 10:31:26;;;;;;;2.35;0.98;;;15.80;72.20;;;;;;2215042;57;20994;-68
2024/02/14 10:33:56;;;;;;;2.42;0.95;;;15.80;72.20;;;;;;2435131;56;20957;-66
2024/02/14 10:36:22;;;;;;;2.20;0.90;;;15.80;72.20;;;;;;2215351;57;21046;-67
2024/02/14 10:38:49;;;;;;;2.53;0.98;;;15.90;72.70;;;;;;2214943;56;21026;-67
2024/02/14 10:41:19;;;;;;;3.92;1.27;;;15.90;72.60;;;;;;2215530;57;21100;-67
2024/02/14 10:43:45;;;;;;;2.08;0.90;;;15.90;72.40;;;;;;2215836;57;20974;-65
2024/02/14 10:46:22;;;;;;;4.60;1.23;;;15.90;72.50;;;;;;2215659;57;20950;-66
2024/02/14 10:48:53;;;;;;;2.58;1.05;;;16.00;71.70;;;;;;2202108;56;20938;-67
2024/02/14 10:51:20;;;;;;;3.43;1.10;;;16.00;72.60;;;;;;2430034;56;20994;-67
2024/02/14 10:57:15;;;;;;;4.05;1.60;;;16.10;71.40;;;;;;2426761;56;20994;-67
2024/02/14 10:59:43;;;;;;;3.78;1.40;;;16.10;73.00;;;;;;2214388;57;20990;-67
2024/02/14 11:02:09;;;;;;;2.70;1.12;;;16.10;72.80;;;;;;2219878;56;20966;-67
2024/02/14 11:04:37;;;;;;;2.90;1.20;;;16.20;73.10;;;;;;2214850;57;20954;-66
2024/02/14 11:07:09;;;;;;;3.83;1.48;;;16.20;73.40;;;;;;2222696;56;21554;-67
2024/02/14 11:09:38;;;;;;;3.28;1.50;;;16.30;73.10;;;;;;2214832;56;20982;-67
2024/02/14 11:12:08;;;;;;;2.92;1.10;;;16.30;73.30;;;;;;2215719;56;21017;-68
2024/02/14 11:14:36;;;;;;;2.47;1.20;;;16.40;73.30;;;;;;2216477;57;21046;-67
2024/02/14 11:17:03;;;;;;;2.35;0.90;;;16.50;73.80;;;;;;2215057;57;21801;-67
2024/02/14 11:19:40;;;;;;;2.78;1.10;;;16.50;73.80;;;;;;2215038;57;21392;-66
2024/02/14 11:22:13;;;;;;;2.33;1.00;;;16.60;73.60;;;;;;2215580;57;20978;-67
2024/02/14 11:28:16;;;;;;;1.65;0.75;;;16.70;72.40;;;;;;2423715;56;21046;-67
2024/02/14 11:30:43;;;;;;;3.60;1.12;;;16.80;73.50;;;;;;2214767;56;20974;-67
2024/02/14 11:33:20;;;;;;;1.83;0.70;;;16.90;74.30;;;;;;2215019;57;20974;-67
2024/02/14 11:35:49;;;;;;;3.42;0.90;;;16.90;74.30;;;;;;2214089;56;20969;-67
2024/02/14 11:38:16;;;;;;;2.35;1.00;;;17.00;74.30;;;;;;2433604;56;21089;-67
2024/02/14 11:40:43;;;;;;;2.12;0.80;;;17.10;74.30;;;;;;2214410;57;21025;-68
2024/02/14 11:43:14;;;;;;;2.75;0.88;;;17.20;74.30;;;;;;2215803;56;20953;-66
2024/02/14 11:45:43;;;;;;;3.22;0.90;;;17.20;73.80;;;;;;2214864;57;20988;-67
2024/02/14 11:48:16;;;;;;;2.85;1.00;;;17.20;73.60;;;;;;2211212;56;20950;-66
2024/02/14 11:50:44;;;;;;;3.33;1.30;;;17.30;73.50;;;;;;2213630;57;21573;-67
2024/02/14 11:53:11;;;;;;;3.47;1.00;;;17.30;73.80;;;;;;2431374;56;21892;-66
2024/02/14 11:55:38;;;;;;;3.22;0.90;;;17.40;74.10;;;;;;2214954;57;20978;-67
2024/02/14 11:58:11;;;;;;;2.30;0.77;;;17.50;74.10;;;;;;2434506;56;21022;-67
2024/02/14 12:00:39;;;;;;;2.47;1.27;;;17.50;73.40;;;;;;2434681;56;21773;-68
2024/02/14 12:03:11;;;;;;;2.12;0.70;;;17.60;73.90;;;;;;2438201;56;21011;-68
2024/02/14 12:05:38;;;;;;;6.25;1.35;;;17.60;73.00;;;;;;2215401;57;20990;-68
2024/02/14 12:08:07;;;;;;;3.45;1.20;;;17.60;73.60;;;;;;2435742;56;20981;-68
2024/02/14 12:10:34;;;;;;;2.62;1.37;;;17.70;73.40;;;;;;2216061;57;21013;-68
2024/02/14 12:13:07;;;;;;;2.67;1.02;;;17.70;73.30;;;;;;2219146;57;20946;-68
2024/02/14 12:15:41;;;;;;;3.55;1.02;;;17.70;72.60;;;;;;2219689;57;21326;-67
2024/02/14 12:18:08;;;;;;;1.90;0.80;;;17.80;72.80;;;;;;2435309;56;20969;-68
2024/02/14 12:20:36;;;;;;;1.62;0.65;;;17.80;73.70;;;;;;2216290;57;20942;-68
2024/02/14 12:23:02;;;;;;;1.98;0.85;;;17.80;73.70;;;;;;2215862;56;21562;-68
2024/02/14 12:25:30;;;;;;;2.90;0.90;;;17.90;73.80;;;;;;2215864;57;21013;-67
2024/02/14 12:27:59;;;;;;;2.03;1.00;;;17.90;73.50;;;;;;2215397;57;21053;-68
2024/02/14 12:30:46;;;;;;;2.10;0.80;;;17.90;72.80;;;;;;2222539;57;20997;-68
2024/02/14 12:33:13;;;;;;;2.08;0.80;;;18.00;71.50;;;;;;2436354;56;20954;-66
2024/02/14 12:35:45;;;;;;;2.00;0.70;;;18.00;73.40;;;;;;2434177;56;21022;-67
2024/02/14 12:38:14;;;;;;;1.75;0.60;;;18.10;73.00;;;;;;2215475;56;21420;-67
2024/02/14 12:40:44;;;;;;;2.37;0.85;;;18.10;73.50;;;;;;2215507;57;21358;-68
2024/02/14 12:43:11;;;;;;;2.28;0.70;;;18.10;73.60;;;;;;2215167;57;20985;-68
2024/02/14 12:45:38;;;;;;;1.77;0.70;;;18.10;73.60;;;;;;2215634;57;21026;-67
2024/02/14 12:48:09;;;;;;;2.25;0.77;;;18.20;73.80;;;;;;2216572;57;21227;-66
2024/02/14 12:50:37;;;;;;;1.90;0.70;;;18.20;73.80;;;;;;2202491;57;21038;-66
2024/02/14 12:53:04;;;;;;;1.92;0.70;;;18.30;74.00;;;;;;2216209;56;21041;-67
2024/02/14 12:55:33;;;;;;;1.23;0.57;;;18.30;74.10;;;;;;2216043;57;21006;-69
2024/02/14 12:57:59;;;;;;;2.47;0.80;;;18.40;74.60;;;;;;2215270;57;21022;-68
2024/02/14 13:00:26;;;;;;;2.17;0.80;;;18.40;74.50;;;;;;2216890;56;20981;-66
2024/02/14 13:02:53;;;;;;;2.45;0.85;;;18.50;74.90;;;;;;2215757;57;21074;-67